Terminal Aerodrome Forecast
Issued by NWS

Home | Current Version | Previous Version | Text Only | Print | Product List | Glossary On
Versions: 1 2 3 4 5 6 7 8 9 10 11 12 13 14 15 16 17 18
948
FTUS46 KSEW 182334
TAFOLM
TAF
KOLM 182334Z 1900/1924 18010KT P6SM -RA SCT024 BKN040 OVC070
     FM190300 19006KT 5SM -SHRA OVC030
     FM191000 20008KT 5SM BR OVC015
     FM191300 20009KT 5SM BR VCSH OVC030
     FM192100 18008KT P6SM -SHRA BKN035 BKN070=

USA.gov is the U.S. government's official web portal to all federal, state and local government web resources and services.